createdAt,value
2022-10-09T00:01:29.406Z,7.44
2022-10-09T00:03:58.631Z,7.42
2022-10-09T00:06:33.338Z,7.41
2022-10-09T00:09:03.705Z,7.39
2022-10-09T00:11:35.606Z,7.38
2022-10-09T00:14:04.435Z,7.36
2022-10-09T00:16:32.677Z,7.35
2022-10-09T00:19:01.132Z,7.33
2022-10-09T00:21:32.938Z,7.32
2022-10-09T00:24:02.983Z,7.30
2022-10-09T00:26:31.513Z,7.29
2022-10-09T00:29:00.018Z,7.27
2022-10-09T00:31:28.211Z,7.26
2022-10-09T00:33:56.690Z,7.25
2022-10-09T00:36:26.265Z,7.23
2022-10-09T00:38:55.599Z,7.22
2022-10-09T00:41:27.871Z,7.20
2022-10-09T00:43:59.220Z,7.18
2022-10-09T00:46:46.133Z,7.17
2022-10-09T00:49:25.084Z,7.15
2022-10-09T00:51:55.692Z,7.13
2022-10-09T00:54:27.118Z,7.12
2022-10-09T00:56:55.724Z,7.10
2022-10-09T00:59:25.231Z,7.09
2022-10-09T01:01:54.161Z,7.07
2022-10-09T01:04:22.291Z,7.06
2022-10-09T01:06:53.239Z,7.05
2022-10-09T01:09:34.722Z,7.03
2022-10-09T01:12:31.061Z,7.01
2022-10-09T01:15:19.814Z,6.98
2022-10-09T01:17:53.825Z,6.96
2022-10-09T01:21:03.165Z,6.94
2022-10-09T01:23:57.163Z,6.93
2022-10-09T01:26:34.371Z,6.92
2022-10-09T01:29:06.916Z,6.91
2022-10-09T01:31:47.178Z,6.90
2022-10-09T01:34:18.106Z,6.90
2022-10-09T01:36:47.206Z,6.88
2022-10-09T01:39:21.875Z,6.87
2022-10-09T01:41:52.257Z,6.86
2022-10-09T01:44:24.118Z,6.85
2022-10-09T01:46:52.913Z,6.85
2022-10-09T01:49:33.370Z,6.85
2022-10-09T01:52:04.097Z,6.84
2022-10-09T01:54:43.662Z,6.84
2022-10-09T01:57:16.224Z,6.82
2022-10-09T01:59:47.499Z,6.81
2022-10-09T02:02:16.453Z,6.80
2022-10-09T02:04:45.556Z,6.80
2022-10-09T02:07:13.830Z,6.79
2022-10-09T02:09:42.413Z,6.78
2022-10-09T02:12:12.944Z,6.78
2022-10-09T02:14:41.235Z,6.76
2022-10-09T02:17:15.342Z,6.74
2022-10-09T02:19:56.718Z,6.72
2022-10-09T02:22:32.059Z,6.70
2022-10-09T02:25:03.765Z,6.69
2022-10-09T02:27:32.981Z,6.68
2022-10-09T02:30:01.196Z,6.67
2022-10-09T02:32:29.571Z,6.67
2022-10-09T02:34:57.516Z,6.68
2022-10-09T02:37:25.562Z,6.69
2022-10-09T02:39:53.991Z,6.69
2022-10-09T02:42:22.369Z,6.69
2022-10-09T02:44:50.440Z,6.69
2022-10-09T02:47:18.672Z,6.69
2022-10-09T02:49:46.588Z,6.68
2022-10-09T02:52:14.760Z,6.67
2022-10-09T02:54:42.645Z,6.66
2022-10-09T02:57:10.803Z,6.65
2022-10-09T02:59:40.250Z,6.64
2022-10-09T03:02:08.859Z,6.64
2022-10-09T03:04:37.066Z,6.63
2022-10-09T03:07:05.034Z,6.63
2022-10-09T03:09:33.978Z,6.62
2022-10-09T03:12:02.102Z,6.60
2022-10-09T03:14:30.059Z,6.59
2022-10-09T03:16:58.141Z,6.56
2022-10-09T03:19:26.040Z,6.55
2022-10-09T03:21:53.977Z,6.52
2022-10-09T03:24:21.928Z,6.50
2022-10-09T03:26:49.964Z,6.48
2022-10-09T03:29:17.886Z,6.45
2022-10-09T03:31:53.580Z,6.42
2022-10-09T03:34:22.122Z,6.40
2022-10-09T03:36:50.506Z,6.37
2022-10-09T03:39:18.570Z,6.34
2022-10-09T03:41:46.746Z,6.31
2022-10-09T03:44:14.611Z,6.29
2022-10-09T03:46:42.734Z,6.26
2022-10-09T03:49:10.988Z,6.23
2022-10-09T03:51:38.900Z,6.21
2022-10-09T03:54:06.901Z,6.18
2022-10-09T03:56:35.384Z,6.16
2022-10-09T03:59:05.708Z,6.13
2022-10-09T04:01:33.696Z,6.12
2022-10-09T04:04:02.433Z,6.09
2022-10-09T04:06:30.275Z,6.08
2022-10-09T04:08:58.300Z,6.06
2022-10-09T04:11:26.170Z,6.05
2022-10-09T04:13:54.385Z,6.02
2022-10-09T04:16:22.318Z,6.00
2022-10-09T04:18:50.412Z,5.98
2022-10-09T04:21:18.458Z,5.97
2022-10-09T04:23:46.628Z,5.96
2022-10-09T04:26:14.566Z,5.97
2022-10-09T04:28:42.680Z,5.97
2022-10-09T04:31:11.308Z,5.97
2022-10-09T04:33:39.226Z,5.95
2022-10-09T04:36:07.363Z,5.95
2022-10-09T04:38:35.471Z,5.94
2022-10-09T04:41:06.242Z,5.94
2022-10-09T04:43:35.218Z,5.95
2022-10-09T04:46:07.891Z,5.96
2022-10-09T04:48:41.589Z,5.99
2022-10-09T04:51:09.962Z,6.01
2022-10-09T04:53:39.262Z,6.04
2022-10-09T04:56:08.628Z,6.09
2022-10-09T04:58:37.458Z,6.14
2022-10-09T05:01:08.142Z,6.21
2022-10-09T05:03:37.081Z,6.30
2022-10-09T05:06:08.109Z,6.40
2022-10-09T05:08:36.754Z,6.52
2022-10-09T05:11:08.130Z,6.63
2022-10-09T05:13:38.515Z,6.79
2022-10-09T05:16:09.364Z,6.95
2022-10-09T05:18:45.609Z,7.10
2022-10-09T05:21:14.549Z,7.28
2022-10-09T05:23:43.285Z,7.46
2022-10-09T05:26:13.813Z,7.65
2022-10-09T05:28:42.100Z,7.85
2022-10-09T05:31:15.096Z,8.06
2022-10-09T05:33:43.353Z,8.33
2022-10-09T05:36:11.924Z,8.60
2022-10-09T05:38:40.513Z,8.81
2022-10-09T05:41:12.007Z,9.00
2022-10-09T05:43:43.007Z,9.18
2022-10-09T05:46:12.719Z,9.37
2022-10-09T05:48:43.171Z,9.56
2022-10-09T05:51:14.182Z,9.75
2022-10-09T05:53:44.034Z,9.93
2022-10-09T05:56:21.595Z,10.08
2022-10-09T05:58:54.974Z,10.26
2022-10-09T06:01:25.821Z,10.43
2022-10-09T06:04:01.269Z,10.63
2022-10-09T06:06:32.493Z,10.80
2022-10-09T06:09:00.567Z,10.97
2022-10-09T06:11:34.482Z,11.13
2022-10-09T06:14:04.958Z,11.28
2022-10-09T06:16:35.573Z,11.46
2022-10-09T06:19:06.384Z,11.65
2022-10-09T06:21:35.057Z,11.94
2022-10-09T06:24:04.215Z,12.16
2022-10-09T06:26:32.733Z,12.38
2022-10-09T06:29:02.649Z,12.58
2022-10-09T06:31:33.077Z,12.74
2022-10-09T06:34:03.235Z,12.84
2022-10-09T06:36:33.987Z,12.96
2022-10-09T06:39:06.039Z,13.14
2022-10-09T06:41:35.294Z,13.40
2022-10-09T06:44:16.603Z,13.86
2022-10-09T06:46:46.595Z,15.07
2022-10-09T06:49:14.776Z,16.34
2022-10-09T06:51:42.945Z,17.16
2022-10-09T06:54:13.985Z,17.44
2022-10-09T06:56:42.368Z,17.49
2022-10-09T06:59:11.465Z,17.63
2022-10-09T07:01:39.903Z,18.66
2022-10-09T07:04:11.903Z,19.97
2022-10-09T07:06:43.213Z,21.00
2022-10-09T07:09:13.579Z,22.46
2022-10-09T07:11:44.596Z,24.07
2022-10-09T07:14:13.734Z,25.35
2022-10-09T07:16:44.350Z,26.43
2022-10-09T07:19:14.064Z,26.42
2022-10-09T07:21:44.812Z,26.33
2022-10-09T07:24:13.888Z,26.97
2022-10-09T07:26:45.457Z,28.00
2022-10-09T07:29:15.359Z,29.45
2022-10-09T07:31:44.251Z,31.10
2022-10-09T07:34:12.524Z,32.63
2022-10-09T07:36:40.603Z,33.56
2022-10-09T07:39:08.544Z,33.83
2022-10-09T07:41:36.750Z,34.06
2022-10-09T07:44:04.965Z,34.65
2022-10-09T07:46:34.213Z,35.56
2022-10-09T07:49:03.947Z,36.40
2022-10-09T07:51:32.917Z,37.68
2022-10-09T07:54:04.618Z,38.82
2022-10-09T07:56:35.815Z,39.88
2022-10-09T07:59:06.862Z,40.68
2022-10-09T08:01:36.149Z,40.85
2022-10-09T08:04:07.086Z,40.54
2022-10-09T08:06:36.335Z,39.77
2022-10-09T08:09:07.034Z,38.59
2022-10-09T08:11:35.799Z,37.39
2022-10-09T08:14:03.649Z,36.46
2022-10-09T08:16:32.344Z,36.26
2022-10-09T08:19:01.576Z,36.49
2022-10-09T08:21:30.363Z,36.52
2022-10-09T08:23:59.616Z,36.26
2022-10-09T08:26:29.684Z,35.64
2022-10-09T08:29:01.100Z,35.04
2022-10-09T08:31:31.903Z,34.81
2022-10-09T08:34:02.875Z,34.49
2022-10-09T08:36:31.808Z,34.44
2022-10-09T08:39:00.160Z,34.72
2022-10-09T08:41:54.574Z,34.99
2022-10-09T08:44:27.206Z,34.63
2022-10-09T08:47:01.362Z,33.91
2022-10-09T08:49:57.697Z,33.18
2022-10-09T08:52:53.971Z,32.53
2022-10-09T08:55:27.022Z,32.15
2022-10-09T08:58:00.825Z,32.10
2022-10-09T09:00:38.794Z,32.22
2022-10-09T09:03:45.200Z,32.43
2022-10-09T09:06:18.596Z,32.38
2022-10-09T09:08:58.446Z,32.40
2022-10-09T09:11:58.155Z,32.44
2022-10-09T09:14:34.892Z,32.21
2022-10-09T09:17:14.887Z,31.73
2022-10-09T09:20:04.535Z,31.17
2022-10-09T09:22:34.512Z,30.61
2022-10-09T09:25:33.988Z,30.05
2022-10-09T09:28:23.428Z,29.25
2022-10-09T09:30:58.770Z,28.43
2022-10-09T09:33:55.957Z,27.97
2022-10-09T09:36:28.295Z,27.44
2022-10-09T09:39:54.268Z,26.99
2022-10-09T09:41:44.651Z,26.69
2022-10-09T09:44:16.507Z,26.45
2022-10-09T09:46:46.606Z,26.15
2022-10-09T09:49:27.231Z,25.82
2022-10-09T09:51:58.575Z,25.46
2022-10-09T09:54:28.869Z,24.98
2022-10-09T09:57:13.889Z,24.62
2022-10-09T09:59:44.363Z,24.47
2022-10-09T10:02:22.166Z,24.37
2022-10-09T10:05:02.121Z,24.41
2022-10-09T10:07:31.528Z,24.59
2022-10-09T10:10:10.344Z,24.70
2022-10-09T10:12:44.969Z,24.61
2022-10-09T10:15:21.137Z,24.48
2022-10-09T10:17:54.837Z,24.38
2022-10-09T10:20:23.148Z,24.25
2022-10-09T10:22:54.781Z,24.13
2022-10-09T10:25:31.959Z,24.05
2022-10-09T10:28:11.340Z,24.08
2022-10-09T10:30:40.589Z,24.14
2022-10-09T10:33:19.841Z,24.32
2022-10-09T10:35:52.402Z,24.42
2022-10-09T10:39:02.204Z,24.38
2022-10-09T10:41:37.899Z,24.15
2022-10-09T10:44:22.638Z,24.05
2022-10-09T10:47:00.129Z,24.06
2022-10-09T10:49:33.527Z,24.16
2022-10-09T10:52:26.713Z,24.32
2022-10-09T10:55:21.914Z,24.59
2022-10-09T10:58:01.463Z,24.64
2022-10-09T11:00:34.055Z,24.52
2022-10-09T11:03:41.115Z,24.38
2022-10-09T11:06:33.881Z,24.29
2022-10-09T11:09:35.436Z,24.34
2022-10-09T11:12:19.549Z,24.38
2022-10-09T11:15:03.117Z,24.43
2022-10-09T11:17:36.207Z,24.54
2022-10-09T11:20:25.272Z,24.66
2022-10-09T11:23:12.595Z,24.72
2022-10-09T11:25:48.966Z,24.64
2022-10-09T11:28:31.262Z,24.58
2022-10-09T11:31:06.943Z,24.62
2022-10-09T11:33:38.952Z,24.61
2022-10-09T11:36:26.755Z,24.55
2022-10-09T11:39:01.452Z,24.52
2022-10-09T11:41:33.998Z,24.49
2022-10-09T11:44:16.269Z,24.38
2022-10-09T11:46:52.694Z,24.15
2022-10-09T11:49:35.816Z,23.96
2022-10-09T11:52:11.057Z,23.75
2022-10-09T11:54:41.080Z,23.72
2022-10-09T11:57:14.298Z,23.88
2022-10-09T11:59:43.349Z,23.79
2022-10-09T12:02:30.694Z,23.88
2022-10-09T12:04:58.818Z,23.99
2022-10-09T12:07:28.089Z,24.74
2022-10-09T12:10:21.961Z,25.53
2022-10-09T12:13:01.211Z,26.31
2022-10-09T12:15:50.642Z,27.05
2022-10-09T12:18:24.763Z,27.85
2022-10-09T12:20:54.447Z,28.57
2022-10-09T12:23:28.114Z,29.14
2022-10-09T12:25:57.677Z,29.72
2022-10-09T12:28:28.052Z,30.18
2022-10-09T12:30:59.743Z,30.70
2022-10-09T12:33:36.845Z,31.32
2022-10-09T12:36:25.356Z,31.79
2022-10-09T12:38:53.621Z,32.22
2022-10-09T12:41:31.601Z,32.54
2022-10-09T12:44:00.302Z,32.79
2022-10-09T12:46:32.023Z,32.98
2022-10-09T12:49:03.202Z,33.10
2022-10-09T12:51:33.549Z,33.03
2022-10-09T12:54:08.766Z,32.65
2022-10-09T12:56:39.060Z,32.05
2022-10-09T12:59:08.924Z,31.36
2022-10-09T13:01:37.530Z,30.54
2022-10-09T13:04:08.699Z,29.85
2022-10-09T13:06:50.524Z,29.27
2022-10-09T13:09:34.402Z,28.68
2022-10-09T13:12:10.288Z,28.05
2022-10-09T13:15:06.011Z,27.42
2022-10-09T13:17:40.598Z,26.74
2022-10-09T13:20:11.838Z,26.23
2022-10-09T13:22:39.983Z,25.80
2022-10-09T13:25:09.665Z,25.46
2022-10-09T13:27:39.917Z,25.15
2022-10-09T13:30:10.674Z,24.81
2022-10-09T13:32:38.855Z,24.38
2022-10-09T13:35:07.173Z,23.99
2022-10-09T13:37:35.675Z,23.59
2022-10-09T13:40:05.984Z,23.22
2022-10-09T13:42:37.197Z,22.90
2022-10-09T13:45:06.560Z,22.59
2022-10-09T13:47:34.519Z,22.34
2022-10-09T13:50:02.877Z,22.08
2022-10-09T13:52:30.872Z,21.86
2022-10-09T13:54:58.901Z,21.64
2022-10-09T13:57:26.895Z,21.43
2022-10-09T13:59:55.171Z,21.28
2022-10-09T14:02:23.653Z,21.15
2022-10-09T14:04:51.736Z,21.00
2022-10-09T14:07:19.680Z,20.84
2022-10-09T14:09:47.869Z,20.68
2022-10-09T14:12:16.041Z,20.50
2022-10-09T14:14:44.213Z,20.36
2022-10-09T14:17:12.262Z,20.24
2022-10-09T14:19:40.257Z,20.13
2022-10-09T14:22:08.281Z,20.04
2022-10-09T14:24:36.933Z,19.94
2022-10-09T14:27:05.219Z,19.87
2022-10-09T14:29:33.258Z,19.81
2022-10-09T14:32:01.297Z,19.74
2022-10-09T14:34:29.322Z,19.64
2022-10-09T14:36:57.367Z,19.54
2022-10-09T14:39:25.440Z,19.45
2022-10-09T14:41:54.129Z,19.37
2022-10-09T14:44:22.710Z,19.25
2022-10-09T14:46:51.217Z,19.16
2022-10-09T14:49:22.121Z,19.08
2022-10-09T14:51:51.240Z,18.97
2022-10-09T14:54:19.819Z,18.82
2022-10-09T14:56:48.398Z,18.69
2022-10-09T14:59:16.672Z,18.57
2022-10-09T15:01:44.675Z,18.43
2022-10-09T15:04:14.997Z,18.26
2022-10-09T15:06:43.089Z,18.08
2022-10-09T15:09:11.112Z,17.93
2022-10-09T15:11:38.997Z,17.84
2022-10-09T15:14:07.766Z,17.75
2022-10-09T15:16:36.355Z,17.64
2022-10-09T15:19:05.982Z,17.54
2022-10-09T15:21:35.858Z,17.40
2022-10-09T15:24:06.758Z,17.27
2022-10-09T15:26:38.568Z,17.11
2022-10-09T15:29:08.488Z,16.94
2022-10-09T15:31:39.448Z,16.75
2022-10-09T15:34:08.351Z,16.58
2022-10-09T15:36:39.875Z,16.44
2022-10-09T15:39:09.053Z,16.31
2022-10-09T15:41:39.102Z,16.19
2022-10-09T15:44:14.019Z,16.06
2022-10-09T15:46:42.296Z,15.93
2022-10-09T15:49:10.490Z,15.81
2022-10-09T15:51:39.468Z,15.66
2022-10-09T15:54:09.382Z,15.53
2022-10-09T15:56:39.960Z,15.39
2022-10-09T15:59:16.943Z,15.27
2022-10-09T16:01:45.025Z,15.13
2022-10-09T16:04:14.159Z,14.98
2022-10-09T16:06:42.141Z,14.87
2022-10-09T16:09:10.203Z,14.77
2022-10-09T16:11:38.581Z,14.66
2022-10-09T16:14:06.753Z,14.56
2022-10-09T16:16:34.826Z,14.46
2022-10-09T16:19:05.056Z,14.34
2022-10-09T16:21:34.042Z,14.20
2022-10-09T16:24:02.012Z,14.07
2022-10-09T16:26:30.702Z,13.98
2022-10-09T16:29:00.411Z,13.92
2022-10-09T16:31:32.014Z,13.88
2022-10-09T16:34:00.406Z,13.84
2022-10-09T16:36:28.804Z,13.82
2022-10-09T16:38:57.986Z,13.82
2022-10-09T16:41:26.883Z,13.82
2022-10-09T16:43:56.875Z,13.83
2022-10-09T16:49:20.068Z,13.86
2022-10-09T16:51:51.114Z,13.85
2022-10-09T16:54:19.362Z,13.85
2022-10-09T16:56:47.461Z,13.83
2022-10-09T16:59:15.432Z,13.82
2022-10-09T17:01:45.465Z,13.82
2022-10-09T17:04:14.875Z,13.81
2022-10-09T17:06:44.187Z,13.80
2022-10-09T17:09:14.476Z,13.79
2022-10-09T17:11:43.783Z,13.78
2022-10-09T17:14:13.085Z,13.77
2022-10-09T17:16:42.085Z,13.73
2022-10-09T17:19:09.967Z,13.68
2022-10-09T17:21:38.128Z,13.63
2022-10-09T17:24:07.827Z,13.58
2022-10-09T17:26:36.264Z,13.55
2022-10-09T17:29:04.788Z,13.51
2022-10-09T17:31:34.148Z,13.49
2022-10-09T17:34:03.687Z,13.48
2022-10-09T17:36:35.464Z,13.47
2022-10-09T17:39:05.604Z,13.47
2022-10-09T17:41:34.316Z,13.46
2022-10-09T17:44:02.911Z,13.45
2022-10-09T17:46:31.899Z,13.44
2022-10-09T17:49:00.305Z,13.43
2022-10-09T17:51:31.535Z,13.42
2022-10-09T17:54:04.859Z,13.39
2022-10-09T17:56:35.249Z,13.38
2022-10-09T17:59:04.246Z,13.37
2022-10-09T18:01:32.825Z,13.35
2022-10-09T18:04:00.940Z,13.33
2022-10-09T18:06:32.544Z,13.30
2022-10-09T18:09:03.999Z,13.27
2022-10-09T18:11:32.362Z,13.24
2022-10-09T18:14:00.753Z,13.21
2022-10-09T18:16:35.772Z,13.17
2022-10-09T18:19:12.661Z,13.13
2022-10-09T18:21:44.675Z,13.09
2022-10-09T18:24:14.050Z,13.05
2022-10-09T18:26:43.467Z,13.02
2022-10-09T18:29:12.260Z,12.99
2022-10-09T18:31:40.415Z,12.95
2022-10-09T18:34:10.428Z,12.91
2022-10-09T18:36:39.438Z,12.87
2022-10-09T18:39:14.360Z,12.84
2022-10-09T18:41:43.434Z,12.80
2022-10-09T18:44:12.762Z,12.77
2022-10-09T18:46:45.048Z,12.73
2022-10-09T18:49:16.066Z,12.68
2022-10-09T18:51:45.673Z,12.65
2022-10-09T18:54:18.370Z,12.62
2022-10-09T18:56:46.748Z,12.59
2022-10-09T18:59:18.306Z,12.56
2022-10-09T19:01:46.435Z,12.52
2022-10-09T19:04:15.044Z,12.48
2022-10-09T19:06:43.114Z,12.43
2022-10-09T19:09:11.291Z,12.36
2022-10-09T19:11:39.668Z,12.30
2022-10-09T19:14:07.984Z,12.25
2022-10-09T19:16:36.311Z,12.18
2022-10-09T19:19:04.500Z,12.13
2022-10-09T19:21:32.467Z,12.05
2022-10-09T19:24:03.714Z,11.98
2022-10-09T19:26:33.128Z,11.89
2022-10-09T19:29:01.925Z,11.79
2022-10-09T19:31:30.284Z,11.68
2022-10-09T19:34:00.795Z,11.59
2022-10-09T19:36:33.095Z,11.50
2022-10-09T19:39:02.592Z,11.40
2022-10-09T19:41:31.121Z,11.31
2022-10-09T19:44:00.245Z,11.22
2022-10-09T19:46:28.471Z,11.12
2022-10-09T19:48:57.438Z,11.01
2022-10-09T19:51:26.817Z,10.90
2022-10-09T19:53:55.155Z,10.79
2022-10-09T19:56:28.945Z,10.67
2022-10-09T19:58:58.538Z,10.57
2022-10-09T20:01:27.328Z,10.48
2022-10-09T20:03:58.992Z,10.37
2022-10-09T20:06:27.355Z,10.28
2022-10-09T20:08:56.119Z,10.19
2022-10-09T20:11:26.267Z,10.10
2022-10-09T20:13:56.257Z,10.01
2022-10-09T20:16:25.824Z,9.93
2022-10-09T20:18:55.293Z,9.85
2022-10-09T20:21:23.367Z,9.77
2022-10-09T20:23:51.978Z,9.70
2022-10-09T20:26:21.586Z,9.63
2022-10-09T20:28:50.144Z,9.56
2022-10-09T20:31:21.090Z,9.50
2022-10-09T20:33:50.708Z,9.43
2022-10-09T20:36:26.754Z,9.37
2022-10-09T20:39:00.575Z,9.31
2022-10-09T20:41:30.383Z,9.25
2022-10-09T20:44:00.283Z,9.19
2022-10-09T20:46:30.796Z,9.12
2022-10-09T20:48:59.208Z,9.06
2022-10-09T20:51:27.276Z,9.00
2022-10-09T20:53:58.014Z,8.94
2022-10-09T20:56:28.456Z,8.89
2022-10-09T20:58:57.741Z,8.83
2022-10-09T21:01:27.165Z,8.78
2022-10-09T21:03:57.564Z,8.74
2022-10-09T21:06:26.300Z,8.69
2022-10-09T21:08:54.731Z,8.64
2022-10-09T21:11:23.927Z,8.60
2022-10-09T21:13:51.998Z,8.55
2022-10-09T21:16:22.739Z,8.51
2022-10-09T21:18:57.150Z,8.46
2022-10-09T21:21:25.962Z,8.42
2022-10-09T21:23:56.186Z,8.37
2022-10-09T21:26:25.770Z,8.33
2022-10-09T21:28:59.058Z,8.29
2022-10-09T21:31:29.796Z,8.24
2022-10-09T21:34:00.457Z,8.21
2022-10-09T21:36:28.402Z,8.17
2022-10-09T21:38:56.571Z,8.13
2022-10-09T21:41:24.850Z,8.09
2022-10-09T21:43:52.870Z,8.07
2022-10-09T21:46:21.020Z,8.04
2022-10-09T21:48:49.576Z,8.03
2022-10-09T21:51:17.749Z,8.02
2022-10-09T21:53:46.150Z,8.02
2022-10-09T21:56:14.406Z,8.02
2022-10-09T21:58:46.740Z,8.01
2022-10-09T22:01:17.374Z,7.99
2022-10-09T22:03:45.380Z,7.98
2022-10-09T22:06:18.944Z,7.96
2022-10-09T22:08:48.123Z,7.93
2022-10-09T22:11:16.969Z,7.90
2022-10-09T22:13:44.835Z,7.87
2022-10-09T22:16:15.174Z,7.86
2022-10-09T22:18:43.334Z,7.83
2022-10-09T22:21:15.473Z,7.82
2022-10-09T22:23:44.063Z,7.79
2022-10-09T22:26:17.177Z,7.74
2022-10-09T22:28:46.632Z,7.70
2022-10-09T22:31:17.886Z,7.66
2022-10-09T22:33:50.975Z,7.61
2022-10-09T22:36:21.037Z,7.55
2022-10-09T22:38:49.055Z,7.50
2022-10-09T22:41:20.230Z,7.46
2022-10-09T22:43:51.653Z,7.43
2022-10-09T22:46:22.148Z,7.41
2022-10-09T22:48:51.024Z,7.39
2022-10-09T22:51:20.947Z,7.37
2022-10-09T22:53:49.953Z,7.34
2022-10-09T22:56:21.689Z,7.32
2022-10-09T22:58:52.976Z,7.29
2022-10-09T23:01:53.287Z,7.26
2022-10-09T23:04:22.974Z,7.22
2022-10-09T23:06:53.325Z,7.18
2022-10-09T23:09:23.212Z,7.14
2022-10-09T23:11:51.385Z,7.11
2022-10-09T23:14:19.732Z,7.08
2022-10-09T23:16:48.149Z,7.06
2022-10-09T23:19:16.688Z,7.03
2022-10-09T23:21:46.232Z,6.99
2022-10-09T23:24:17.757Z,6.96
2022-10-09T23:26:46.632Z,6.93
2022-10-09T23:29:19.465Z,6.92
2022-10-09T23:31:51.432Z,6.92
2022-10-09T23:34:19.394Z,6.92
2022-10-09T23:36:47.365Z,6.90
2022-10-09T23:39:15.333Z,6.88
2022-10-09T23:41:43.214Z,6.85
2022-10-09T23:44:11.275Z,6.82
2022-10-09T23:46:40.065Z,6.80
2022-10-09T23:49:07.928Z,6.78
2022-10-09T23:51:35.860Z,6.76
2022-10-09T23:54:04.173Z,6.73
2022-10-09T23:56:34.503Z,6.71
2022-10-09T23:59:07.853Z,6.68
